sensor_id;sensor_type;location;lat;lon;timestamp;pressure;altitude;pressure_sealevel;temperature;humidity
54936;BME280;40838;50.676;7.838;2023-04-03T00:00:32;99403.03;;;1.40;100.00
54936;BME280;40838;50.676;7.838;2023-04-03T00:02:58;99404.69;;;1.20;100.00
54936;BME280;40838;50.676;7.838;2023-04-03T00:05:25;99406.25;;;1.14;100.00
54936;BME280;40838;50.676;7.838;2023-04-03T00:07:52;99408.72;;;1.22;100.00
54936;BME280;40838;50.676;7.838;2023-04-03T00:10:22;99411.28;;;1.16;100.00
54936;BME280;40838;50.676;7.838;2023-04-03T00:12:49;99416.53;;;1.16;100.00
54936;BME280;40838;50.676;7.838;2023-04-03T00:15:16;99421.63;;;0.96;100.00
54936;BME280;40838;50.676;7.838;2023-04-03T00:17:44;99417.25;;;1.03;100.00
54936;BME280;40838;50.676;7.838;2023-04-03T00:20:11;99412.75;;;0.97;100.00
54936;BME280;40838;50.676;7.838;2023-04-03T00:22:38;99409.38;;;1.03;100.00
54936;BME280;40838;50.676;7.838;2023-04-03T00:25:05;99402.75;;;1.07;100.00
54936;BME280;40838;50.676;7.838;2023-04-03T00:27:32;99412.00;;;1.03;100.00
54936;BME280;40838;50.676;7.838;2023-04-03T00:29:59;99418.63;;;0.99;100.00
54936;BME280;40838;50.676;7.838;2023-04-03T00:32:26;99414.75;;;0.95;100.00
54936;BME280;40838;50.676;7.838;2023-04-03T00:34:54;99420.00;;;-0.22;100.00
54936;BME280;40838;50.676;7.838;2023-04-03T00:37:21;99414.41;;;-0.34;100.00
54936;BME280;40838;50.676;7.838;2023-04-03T00:39:48;99400.94;;;0.65;100.00
54936;BME280;40838;50.676;7.838;2023-04-03T00:42:15;99406.63;;;0.90;100.00
54936;BME280;40838;50.676;7.838;2023-04-03T00:47:46;99405.63;;;0.91;100.00
54936;BME280;40838;50.676;7.838;2023-04-03T00:50:14;99414.25;;;1.06;100.00
54936;BME280;40838;50.676;7.838;2023-04-03T00:52:41;99407.53;;;1.25;100.00
54936;BME280;40838;50.676;7.838;2023-04-03T00:55:09;99415.19;;;0.98;100.00
54936;BME280;40838;50.676;7.838;2023-04-03T00:57:36;99407.88;;;0.36;100.00
54936;BME280;40838;50.676;7.838;2023-04-03T01:00:09;99411.13;;;0.38;100.00
54936;BME280;40838;50.676;7.838;2023-04-03T01:02:36;99410.16;;;0.61;100.00
54936;BME280;40838;50.676;7.838;2023-04-03T01:05:07;99411.19;;;0.08;100.00
54936;BME280;40838;50.676;7.838;2023-04-03T01:07:35;99408.69;;;0.36;100.00
54936;BME280;40838;50.676;7.838;2023-04-03T01:10:05;99409.81;;;0.12;100.00
54936;BME280;40838;50.676;7.838;2023-04-03T01:12:34;99404.84;;;0.18;100.00
54936;BME280;40838;50.676;7.838;2023-04-03T01:15:03;99403.25;;;0.74;100.00
54936;BME280;40838;50.676;7.838;2023-04-03T01:17:32;99403.31;;;0.59;100.00
54936;BME280;40838;50.676;7.838;2023-04-03T01:23:03;99404.59;;;-0.02;100.00
54936;BME280;40838;50.676;7.838;2023-04-03T01:25:33;99403.19;;;0.68;100.00
54936;BME280;40838;50.676;7.838;2023-04-03T01:28:02;99394.13;;;1.13;100.00
54936;BME280;40838;50.676;7.838;2023-04-03T01:30:32;99394.06;;;1.07;100.00
54936;BME280;40838;50.676;7.838;2023-04-03T01:33:00;99392.50;;;0.48;100.00
54936;BME280;40838;50.676;7.838;2023-04-03T01:35:28;99396.50;;;0.87;100.00
54936;BME280;40838;50.676;7.838;2023-04-03T01:37:55;99386.44;;;0.69;100.00
54936;BME280;40838;50.676;7.838;2023-04-03T01:40:22;99390.41;;;0.79;100.00
54936;BME280;40838;50.676;7.838;2023-04-03T01:42:50;99384.94;;;0.81;100.00
54936;BME280;40838;50.676;7.838;2023-04-03T01:45:16;99391.19;;;0.58;100.00
54936;BME280;40838;50.676;7.838;2023-04-03T01:47:43;99400.50;;;0.82;100.00
54936;BME280;40838;50.676;7.838;2023-04-03T01:50:11;99401.19;;;0.91;100.00
54936;BME280;40838;50.676;7.838;2023-04-03T01:52:38;99398.94;;;0.88;100.00
54936;BME280;40838;50.676;7.838;2023-04-03T01:55:06;99401.88;;;0.78;100.00
54936;BME280;40838;50.676;7.838;2023-04-03T01:57:33;99401.94;;;0.85;100.00
54936;BME280;40838;50.676;7.838;2023-04-03T02:00:00;99406.03;;;0.51;100.00
54936;BME280;40838;50.676;7.838;2023-04-03T02:02:27;99405.66;;;0.54;100.00
54936;BME280;40838;50.676;7.838;2023-04-03T02:04:54;99405.00;;;0.31;100.00
54936;BME280;40838;50.676;7.838;2023-04-03T02:07:22;99410.19;;;0.46;100.00
54936;BME280;40838;50.676;7.838;2023-04-03T02:09:49;99405.00;;;0.31;100.00
54936;BME280;40838;50.676;7.838;2023-04-03T02:12:16;99406.91;;;0.22;100.00
54936;BME280;40838;50.676;7.838;2023-04-03T02:14:43;99401.94;;;0.27;100.00
54936;BME280;40838;50.676;7.838;2023-04-03T02:17:11;99405.34;;;0.28;100.00
54936;BME280;40838;50.676;7.838;2023-04-03T02:19:38;99405.44;;;0.34;100.00
54936;BME280;40838;50.676;7.838;2023-04-03T02:22:05;99405.81;;;0.31;100.00
54936;BME280;40838;50.676;7.838;2023-04-03T02:24:33;99410.53;;;0.21;100.00
54936;BME280;40838;50.676;7.838;2023-04-03T02:27:00;99407.00;;;0.29;100.00
54936;BME280;40838;50.676;7.838;2023-04-03T02:29:27;99408.00;;;-0.17;100.00
54936;BME280;40838;50.676;7.838;2023-04-03T02:31:54;99405.59;;;0.11;100.00
54936;BME280;40838;50.676;7.838;2023-04-03T02:34:22;99397.91;;;-0.05;100.00
54936;BME280;40838;50.676;7.838;2023-04-03T02:36:49;99392.56;;;-0.26;100.00
54936;BME280;40838;50.676;7.838;2023-04-03T02:39:18;99392.19;;;-0.09;100.00
54936;BME280;40838;50.676;7.838;2023-04-03T02:41:48;99406.19;;;-0.31;100.00
54936;BME280;40838;50.676;7.838;2023-04-03T02:44:20;99402.47;;;-0.37;100.00
54936;BME280;40838;50.676;7.838;2023-04-03T02:46:49;99408.56;;;-0.59;100.00
54936;BME280;40838;50.676;7.838;2023-04-03T02:49:16;99400.72;;;-0.59;100.00
54936;BME280;40838;50.676;7.838;2023-04-03T02:51:43;99405.81;;;-0.81;100.00
54936;BME280;40838;50.676;7.838;2023-04-03T02:54:11;99405.38;;;-1.07;100.00
54936;BME280;40838;50.676;7.838;2023-04-03T02:56:42;99411.91;;;-0.88;100.00
54936;BME280;40838;50.676;7.838;2023-04-03T02:59:10;99418.25;;;-0.83;100.00
54936;BME280;40838;50.676;7.838;2023-04-03T03:01:39;99411.44;;;-0.69;100.00
54936;BME280;40838;50.676;7.838;2023-04-03T03:04:06;99414.88;;;-0.68;100.00
54936;BME280;40838;50.676;7.838;2023-04-03T03:06:32;99423.84;;;-1.32;100.00
54936;BME280;40838;50.676;7.838;2023-04-03T03:08:59;99419.47;;;-1.08;100.00
54936;BME280;40838;50.676;7.838;2023-04-03T03:11:26;99421.78;;;-0.90;100.00
54936;BME280;40838;50.676;7.838;2023-04-03T03:13:53;99420.47;;;-0.94;100.00
54936;BME280;40838;50.676;7.838;2023-04-03T03:16:21;99424.56;;;-0.92;100.00
54936;BME280;40838;50.676;7.838;2023-04-03T03:18:48;99425.13;;;-1.59;100.00
54936;BME280;40838;50.676;7.838;2023-04-03T03:21:15;99428.03;;;-1.46;100.00
54936;BME280;40838;50.676;7.838;2023-04-03T03:23:42;99425.03;;;-1.11;100.00
54936;BME280;40838;50.676;7.838;2023-04-03T03:26:10;99431.53;;;-2.09;100.00
54936;BME280;40838;50.676;7.838;2023-04-03T03:28:39;99432.53;;;-1.08;100.00
54936;BME280;40838;50.676;7.838;2023-04-03T03:31:07;99436.44;;;-1.35;100.00
54936;BME280;40838;50.676;7.838;2023-04-03T03:33:37;99430.19;;;-1.26;100.00
54936;BME280;40838;50.676;7.838;2023-04-03T03:36:04;99432.16;;;-1.59;100.00
54936;BME280;40838;50.676;7.838;2023-04-03T03:38:31;99433.28;;;-1.54;100.00
54936;BME280;40838;50.676;7.838;2023-04-03T03:41:00;99428.44;;;-1.34;100.00
54936;BME280;40838;50.676;7.838;2023-04-03T03:43:28;99441.72;;;-1.75;100.00
54936;BME280;40838;50.676;7.838;2023-04-03T03:45:55;99436.94;;;-1.32;100.00
54936;BME280;40838;50.676;7.838;2023-04-03T03:48:23;99433.78;;;-1.27;100.00
54936;BME280;40838;50.676;7.838;2023-04-03T03:50:52;99441.28;;;-1.01;100.00
54936;BME280;40838;50.676;7.838;2023-04-03T03:53:23;99441.28;;;-1.01;100.00
54936;BME280;40838;50.676;7.838;2023-04-03T03:55:53;99441.75;;;-1.43;100.00
54936;BME280;40838;50.676;7.838;2023-04-03T03:58:22;99439.38;;;-1.07;100.00
54936;BME280;40838;50.676;7.838;2023-04-03T04:00:49;99443.03;;;-1.16;100.00
54936;BME280;40838;50.676;7.838;2023-04-03T04:03:16;99441.50;;;-1.34;100.00
54936;BME280;40838;50.676;7.838;2023-04-03T04:05:46;99439.50;;;-1.01;100.00
54936;BME280;40838;50.676;7.838;2023-04-03T04:08:14;99440.25;;;-1.38;100.00
54936;BME280;40838;50.676;7.838;2023-04-03T04:10:43;99439.94;;;-1.43;100.00
54936;BME280;40838;50.676;7.838;2023-04-03T04:13:12;99442.22;;;-1.17;100.00
54936;BME280;40838;50.676;7.838;2023-04-03T04:15:39;99440.41;;;-1.39;100.00
54936;BME280;40838;50.676;7.838;2023-04-03T04:18:06;99446.03;;;-1.59;100.00
54936;BME280;40838;50.676;7.838;2023-04-03T04:20:34;99437.81;;;-1.16;100.00
54936;BME280;40838;50.676;7.838;2023-04-03T04:23:01;99436.63;;;-1.37;100.00
54936;BME280;40838;50.676;7.838;2023-04-03T04:25:31;99435.81;;;-1.69;100.00
54936;BME280;40838;50.676;7.838;2023-04-03T04:27:58;99434.81;;;-1.68;100.00
54936;BME280;40838;50.676;7.838;2023-04-03T04:30:25;99434.97;;;-1.61;100.00
54936;BME280;40838;50.676;7.838;2023-04-03T04:32:54;99426.63;;;-1.64;100.00
54936;BME280;40838;50.676;7.838;2023-04-03T04:35:21;99434.34;;;-1.71;100.00
54936;BME280;40838;50.676;7.838;2023-04-03T04:37:50;99434.81;;;-1.68;100.00
54936;BME280;40838;50.676;7.838;2023-04-03T04:40:17;99434.09;;;-1.53;100.00
54936;BME280;40838;50.676;7.838;2023-04-03T04:42:46;99443.41;;;-1.90;100.00
54936;BME280;40838;50.676;7.838;2023-04-03T04:45:14;99443.63;;;-1.60;100.00
54936;BME280;40838;50.676;7.838;2023-04-03T04:47:43;99444.91;;;-1.64;100.00
54936;BME280;40838;50.676;7.838;2023-04-03T04:50:10;99443.63;;;-1.60;100.00
54936;BME280;40838;50.676;7.838;2023-04-03T04:52:38;99445.00;;;-1.18;100.00
54936;BME280;40838;50.676;7.838;2023-04-03T04:55:08;99456.09;;;-1.79;100.00
54936;BME280;40838;50.676;7.838;2023-04-03T04:57:36;99448.41;;;-1.72;100.00
54936;BME280;40838;50.676;7.838;2023-04-03T05:00:07;99454.75;;;-1.35;100.00
54936;BME280;40838;50.676;7.838;2023-04-03T05:02:34;99458.81;;;-1.64;100.00
54936;BME280;40838;50.676;7.838;2023-04-03T05:05:01;99451.72;;;-1.95;100.00
54936;BME280;40838;50.676;7.838;2023-04-03T05:07:29;99465.91;;;-1.89;100.00
54936;BME280;40838;50.676;7.838;2023-04-03T05:09:59;99458.47;;;-2.08;100.00
54936;BME280;40838;50.676;7.838;2023-04-03T05:12:27;99456.03;;;-2.18;100.00
54936;BME280;40838;50.676;7.838;2023-04-03T05:14:58;99461.16;;;-1.85;100.00
54936;BME280;40838;50.676;7.838;2023-04-03T05:17:27;99473.91;;;-1.82;100.00
54936;BME280;40838;50.676;7.838;2023-04-03T05:19:56;99468.47;;;-1.33;100.00
54936;BME280;40838;50.676;7.838;2023-04-03T05:22:25;99478.50;;;-1.84;100.00
54936;BME280;40838;50.676;7.838;2023-04-03T05:24:55;99480.59;;;-1.88;100.00
54936;BME280;40838;50.676;7.838;2023-04-03T05:27:22;99481.47;;;-1.96;100.00
54936;BME280;40838;50.676;7.838;2023-04-03T05:29:53;99482.88;;;-1.37;100.00
54936;BME280;40838;50.676;7.838;2023-04-03T05:32:21;99488.22;;;-1.31;100.00
54936;BME280;40838;50.676;7.838;2023-04-03T05:34:56;99478.63;;;-1.38;100.00
54936;BME280;40838;50.676;7.838;2023-04-03T05:37:22;99488.00;;;-1.52;100.00
54936;BME280;40838;50.676;7.838;2023-04-03T05:39:51;99486.25;;;-1.68;100.00
54936;BME280;40838;50.676;7.838;2023-04-03T05:42:19;99491.00;;;-1.32;100.00
54936;BME280;40838;50.676;7.838;2023-04-03T05:44:45;99489.59;;;-0.89;100.00
54936;BME280;40838;50.676;7.838;2023-04-03T05:47:13;99486.19;;;-0.28;95.86
54936;BME280;40838;50.676;7.838;2023-04-03T05:49:40;99494.91;;;0.02;91.39
54936;BME280;40838;50.676;7.838;2023-04-03T05:52:18;99486.94;;;2.39;77.66
54936;BME280;40838;50.676;7.838;2023-04-03T05:54:47;99484.97;;;3.29;66.79
54936;BME280;40838;50.676;7.838;2023-04-03T05:57:19;99486.59;;;4.04;60.34
54936;BME280;40838;50.676;7.838;2023-04-03T05:59:46;99493.00;;;5.24;51.73
54936;BME280;40838;50.676;7.838;2023-04-03T06:02:15;99484.66;;;7.60;42.75
54936;BME280;40838;50.676;7.838;2023-04-03T06:04:44;99490.41;;;7.69;41.92
54936;BME280;40838;50.676;7.838;2023-04-03T06:07:14;99491.81;;;7.83;38.80
54936;BME280;40838;50.676;7.838;2023-04-03T06:09:42;99484.44;;;10.63;35.09
54936;BME280;40838;50.676;7.838;2023-04-03T06:12:09;99484.50;;;10.46;33.31
54936;BME280;40838;50.676;7.838;2023-04-03T06:14:38;99496.16;;;8.60;35.33
54936;BME280;40838;50.676;7.838;2023-04-03T06:17:05;99493.13;;;9.93;34.95
54936;BME280;40838;50.676;7.838;2023-04-03T06:19:34;99508.13;;;8.62;36.36
54936;BME280;40838;50.676;7.838;2023-04-03T06:22:01;99498.28;;;9.99;35.01
54936;BME280;40838;50.676;7.838;2023-04-03T06:24:31;99499.81;;;9.61;33.71
54936;BME280;40838;50.676;7.838;2023-04-03T06:26:58;99496.84;;;10.74;31.75
54936;BME280;40838;50.676;7.838;2023-04-03T06:29:25;99502.69;;;10.10;32.99
54936;BME280;40838;50.676;7.838;2023-04-03T06:31:52;99508.19;;;6.47;41.54
54936;BME280;40838;50.676;7.838;2023-04-03T06:34:19;99513.69;;;5.59;42.34
54936;BME280;40838;50.676;7.838;2023-04-03T06:36:45;99507.97;;;6.98;41.65
54936;BME280;40838;50.676;7.838;2023-04-03T06:39:13;99521.88;;;5.19;45.67
54936;BME280;40838;50.676;7.838;2023-04-03T06:41:42;99518.22;;;4.82;50.03
54936;BME280;40838;50.676;7.838;2023-04-03T06:44:09;99523.91;;;4.79;45.80
54936;BME280;40838;50.676;7.838;2023-04-03T06:46:37;99513.25;;;7.58;41.54
54936;BME280;40838;50.676;7.838;2023-04-03T06:49:04;99506.31;;;8.51;37.13
54936;BME280;40838;50.676;7.838;2023-04-03T06:51:32;99516.16;;;7.92;38.97
54936;BME280;40838;50.676;7.838;2023-04-03T06:54:00;99518.66;;;6.61;41.71
54936;BME280;40838;50.676;7.838;2023-04-03T06:56:27;99538.00;;;5.99;42.94
54936;BME280;40838;50.676;7.838;2023-04-03T06:58:56;99529.41;;;8.03;38.27
54936;BME280;40838;50.676;7.838;2023-04-03T07:01:24;99539.34;;;7.96;37.38
54936;BME280;40838;50.676;7.838;2023-04-03T07:03:53;99525.44;;;6.87;41.39
54936;BME280;40838;50.676;7.838;2023-04-03T07:06:20;99544.56;;;5.90;43.34
54936;BME280;40838;50.676;7.838;2023-04-03T07:08:47;99544.94;;;5.69;44.38
54936;BME280;40838;50.676;7.838;2023-04-03T07:11:15;99543.06;;;5.12;44.50
54936;BME280;40838;50.676;7.838;2023-04-03T07:13:42;99551.06;;;5.94;45.66
54936;BME280;40838;50.676;7.838;2023-04-03T07:16:10;99566.47;;;4.11;47.99
54936;BME280;40838;50.676;7.838;2023-04-03T07:18:37;99555.78;;;4.84;48.67
54936;BME280;40838;50.676;7.838;2023-04-03T07:21:04;99561.31;;;4.69;48.58
54936;BME280;40838;50.676;7.838;2023-04-03T07:23:31;99570.50;;;3.47;53.74
54936;BME280;40838;50.676;7.838;2023-04-03T07:25:58;99568.13;;;2.91;58.34
54936;BME280;40838;50.676;7.838;2023-04-03T07:28:25;99561.19;;;3.64;56.94
54936;BME280;40838;50.676;7.838;2023-04-03T07:30:53;99559.19;;;3.86;57.73
54936;BME280;40838;50.676;7.838;2023-04-03T07:33:22;99572.72;;;3.50;56.92
54936;BME280;40838;50.676;7.838;2023-04-03T07:35:49;99573.34;;;5.10;49.97
54936;BME280;40838;50.676;7.838;2023-04-03T07:38:16;99589.34;;;2.89;56.72
54936;BME280;40838;50.676;7.838;2023-04-03T07:40:46;99567.09;;;3.73;54.99
54936;BME280;40838;50.676;7.838;2023-04-03T07:43:13;99592.03;;;2.26;63.23
54936;BME280;40838;50.676;7.838;2023-04-03T07:45:41;99617.97;;;2.08;63.71
54936;BME280;40838;50.676;7.838;2023-04-03T07:48:08;99575.13;;;2.77;65.04
54936;BME280;40838;50.676;7.838;2023-04-03T07:50:37;99583.09;;;4.51;53.78
54936;BME280;40838;50.676;7.838;2023-04-03T07:53:06;99574.97;;;4.26;53.46
54936;BME280;40838;50.676;7.838;2023-04-03T07:55:33;99586.16;;;4.48;52.29
54936;BME280;40838;50.676;7.838;2023-04-03T07:58:02;99585.38;;;5.38;48.32
54936;BME280;40838;50.676;7.838;2023-04-03T08:00:30;99587.94;;;4.61;51.43
54936;BME280;40838;50.676;7.838;2023-04-03T08:02:57;99587.94;;;2.87;63.52
54936;BME280;40838;50.676;7.838;2023-04-03T08:05:24;99587.72;;;4.56;57.32
54936;BME280;40838;50.676;7.838;2023-04-03T08:07:53;99586.53;;;4.65;54.15
54936;BME280;40838;50.676;7.838;2023-04-03T08:10:19;99588.41;;;4.44;52.40
54936;BME280;40838;50.676;7.838;2023-04-03T08:12:46;99597.34;;;2.05;68.69
54936;BME280;40838;50.676;7.838;2023-04-03T08:15:13;99600.25;;;1.95;73.04
54936;BME280;40838;50.676;7.838;2023-04-03T08:17:41;99586.34;;;2.23;63.62
54936;BME280;40838;50.676;7.838;2023-04-03T08:20:10;99597.34;;;3.09;60.72
54936;BME280;40838;50.676;7.838;2023-04-03T08:22:37;99589.19;;;2.97;58.94
54936;BME280;40838;50.676;7.838;2023-04-03T08:25:06;99587.91;;;5.19;49.51
54936;BME280;40838;50.676;7.838;2023-04-03T08:27:33;99584.97;;;4.96;50.19
54936;BME280;40838;50.676;7.838;2023-04-03T08:30:00;99595.41;;;2.83;61.67
54936;BME280;40838;50.676;7.838;2023-04-03T08:32:27;99613.63;;;0.70;72.49
54936;BME280;40838;50.676;7.838;2023-04-03T08:34:54;99611.06;;;1.79;70.78
54936;BME280;40838;50.676;7.838;2023-04-03T08:37:21;99599.31;;;3.55;56.21
54936;BME280;40838;50.676;7.838;2023-04-03T08:39:48;99593.56;;;4.84;52.81
54936;BME280;40838;50.676;7.838;2023-04-03T08:42:23;99594.75;;;4.95;49.81
54936;BME280;40838;50.676;7.838;2023-04-03T08:44:59;99589.97;;;3.52;57.07
54936;BME280;40838;50.676;7.838;2023-04-03T08:47:38;99590.59;;;3.54;55.47
54936;BME280;40838;50.676;7.838;2023-04-03T08:50:07;99582.84;;;2.78;61.72
54936;BME280;40838;50.676;7.838;2023-04-03T08:52:39;99587.38;;;2.98;64.48
54936;BME280;40838;50.676;7.838;2023-04-03T08:55:19;99601.81;;;2.67;63.79
54936;BME280;40838;50.676;7.838;2023-04-03T08:57:50;99597.69;;;3.61;55.71
54936;BME280;40838;50.676;7.838;2023-04-03T09:00:23;99594.44;;;5.23;50.32
54936;BME280;40838;50.676;7.838;2023-04-03T09:02:51;99582.88;;;5.18;51.77
54936;BME280;40838;50.676;7.838;2023-04-03T09:05:23;99594.47;;;5.80;43.07
54936;BME280;40838;50.676;7.838;2023-04-03T09:08:00;99596.81;;;4.73;46.48
54936;BME280;40838;50.676;7.838;2023-04-03T09:10:33;99600.38;;;4.07;49.99
54936;BME280;40838;50.676;7.838;2023-04-03T09:13:05;99596.47;;;3.63;53.56
54936;BME280;40838;50.676;7.838;2023-04-03T09:15:34;99593.88;;;4.43;50.13
54936;BME280;40838;50.676;7.838;2023-04-03T09:18:04;99597.09;;;4.25;48.60
54936;BME280;40838;50.676;7.838;2023-04-03T09:20:39;99594.84;;;4.62;49.80
54936;BME280;40838;50.676;7.838;2023-04-03T09:23:19;99589.00;;;4.33;51.69
54936;BME280;40838;50.676;7.838;2023-04-03T09:25:49;99587.56;;;4.51;47.23
54936;BME280;40838;50.676;7.838;2023-04-03T09:28:20;99598.09;;;3.71;46.93
54936;BME280;40838;50.676;7.838;2023-04-03T09:30:46;99603.47;;;6.04;43.98
54936;BME280;40838;50.676;7.838;2023-04-03T09:33:14;99592.19;;;5.58;44.05
54936;BME280;40838;50.676;7.838;2023-04-03T09:35:50;99597.50;;;5.13;45.61
54936;BME280;40838;50.676;7.838;2023-04-03T09:38:19;99601.28;;;4.86;45.24
54936;BME280;40838;50.676;7.838;2023-04-03T09:40:48;99599.25;;;3.35;49.84
54936;BME280;40838;50.676;7.838;2023-04-03T09:43:26;99580.38;;;5.23;46.65
54936;BME280;40838;50.676;7.838;2023-04-03T09:45:54;99595.69;;;3.83;48.79
54936;BME280;40838;50.676;7.838;2023-04-03T09:48:25;99593.06;;;4.29;51.06
54936;BME280;40838;50.676;7.838;2023-04-03T09:51:00;99600.03;;;3.16;52.94
54936;BME280;40838;50.676;7.838;2023-04-03T09:53:34;99592.44;;;5.50;42.43
54936;BME280;40838;50.676;7.838;2023-04-03T09:56:04;99599.34;;;4.41;43.38
54936;BME280;40838;50.676;7.838;2023-04-03T09:58:40;99582.06;;;4.52;41.45
54936;BME280;40838;50.676;7.838;2023-04-03T10:01:21;99589.09;;;5.30;37.79
54936;BME280;40838;50.676;7.838;2023-04-03T10:04:04;99578.44;;;4.53;40.38
54936;BME280;40838;50.676;7.838;2023-04-03T10:06:34;99583.31;;;4.23;39.45
54936;BME280;40838;50.676;7.838;2023-04-03T10:09:05;99591.19;;;3.50;42.94
54936;BME280;40838;50.676;7.838;2023-04-03T10:11:33;99592.09;;;4.95;38.63
54936;BME280;40838;50.676;7.838;2023-04-03T10:14:02;99583.72;;;4.53;39.74
54936;BME280;40838;50.676;7.838;2023-04-03T10:16:36;99602.28;;;2.43;41.78
54936;BME280;40838;50.676;7.838;2023-04-03T10:19:30;99585.34;;;3.81;41.60
54936;BME280;40838;50.676;7.838;2023-04-03T10:22:00;99577.84;;;4.05;38.63
54936;BME280;40838;50.676;7.838;2023-04-03T10:24:35;99572.94;;;3.62;42.36
54936;BME280;40838;50.676;7.838;2023-04-03T10:27:11;99569.13;;;4.24;41.23
54936;BME280;40838;50.676;7.838;2023-04-03T10:29:46;99563.34;;;4.74;39.22
54936;BME280;40838;50.676;7.838;2023-04-03T10:32:29;99567.69;;;4.08;40.93
54936;BME280;40838;50.676;7.838;2023-04-03T10:35:02;99563.41;;;6.44;38.48
54936;BME280;40838;50.676;7.838;2023-04-03T10:37:44;99567.00;;;5.88;35.92
54936;BME280;40838;50.676;7.838;2023-04-03T10:40:23;99562.53;;;6.50;35.47
54936;BME280;40838;50.676;7.838;2023-04-03T10:42:53;99561.03;;;5.61;35.39
54936;BME280;40838;50.676;7.838;2023-04-03T10:45:29;99558.66;;;6.09;36.29
54936;BME280;40838;50.676;7.838;2023-04-03T10:48:04;99560.63;;;4.87;35.88
54936;BME280;40838;50.676;7.838;2023-04-03T10:50:39;99563.44;;;5.37;35.13
54936;BME280;40838;50.676;7.838;2023-04-03T10:53:19;99562.00;;;3.58;35.28
54936;BME280;40838;50.676;7.838;2023-04-03T10:55:53;99564.47;;;3.86;37.75
54936;BME280;40838;50.676;7.838;2023-04-03T10:58:28;99565.66;;;3.70;33.22
54936;BME280;40838;50.676;7.838;2023-04-03T11:01:00;99563.63;;;4.26;36.64
54936;BME280;40838;50.676;7.838;2023-04-03T11:03:30;99573.00;;;5.00;35.21
54936;BME280;40838;50.676;7.838;2023-04-03T11:06:01;99549.91;;;5.58;34.70
54936;BME280;40838;50.676;7.838;2023-04-03T11:08:32;99557.53;;;3.59;38.00
54936;BME280;40838;50.676;7.838;2023-04-03T11:11:04;99562.63;;;4.40;38.72
54936;BME280;40838;50.676;7.838;2023-04-03T11:13:35;99552.28;;;4.32;35.89
54936;BME280;40838;50.676;7.838;2023-04-03T11:16:06;99550.69;;;3.77;39.26
54936;BME280;40838;50.676;7.838;2023-04-03T11:18:36;99554.34;;;3.83;36.72
54936;BME280;40838;50.676;7.838;2023-04-03T11:21:09;99545.28;;;3.04;39.99
54936;BME280;40838;50.676;7.838;2023-04-03T11:23:40;99535.81;;;2.62;40.44
54936;BME280;40838;50.676;7.838;2023-04-03T11:26:10;99529.16;;;2.31;39.62
54936;BME280;40838;50.676;7.838;2023-04-03T11:28:38;99532.22;;;4.04;38.30
54936;BME280;40838;50.676;7.838;2023-04-03T11:31:19;99529.97;;;3.61;37.67
54936;BME280;40838;50.676;7.838;2023-04-03T11:33:58;99541.13;;;3.70;38.57
54936;BME280;40838;50.676;7.838;2023-04-03T11:36:33;99525.06;;;4.38;41.10
54936;BME280;40838;50.676;7.838;2023-04-03T11:39:13;99548.84;;;3.71;38.86
54936;BME280;40838;50.676;7.838;2023-04-03T11:41:42;99535.25;;;4.21;39.46
54936;BME280;40838;50.676;7.838;2023-04-03T11:44:29;99515.97;;;4.07;41.78
54936;BME280;40838;50.676;7.838;2023-04-03T11:46:59;99510.47;;;4.87;37.21
54936;BME280;40838;50.676;7.838;2023-04-03T11:49:58;99514.13;;;5.24;38.12
54936;BME280;40838;50.676;7.838;2023-04-03T11:52:58;99510.88;;;4.26;38.87
54936;BME280;40838;50.676;7.838;2023-04-03T11:55:44;99513.31;;;3.21;38.78
54936;BME280;40838;50.676;7.838;2023-04-03T11:58:14;99504.66;;;3.87;39.62
54936;BME280;40838;50.676;7.838;2023-04-03T12:00:50;99514.00;;;3.63;36.87
54936;BME280;40838;50.676;7.838;2023-04-03T12:09:56;99506.38;;;2.87;40.57
54936;BME280;40838;50.676;7.838;2023-04-03T12:12:41;99506.16;;;4.54;37.24
54936;BME280;40838;50.676;7.838;2023-04-03T12:15:38;99508.19;;;5.29;38.08
54936;BME280;40838;50.676;7.838;2023-04-03T12:21:16;99513.53;;;4.84;39.38
54936;BME280;40838;50.676;7.838;2023-04-03T12:24:04;99524.44;;;4.49;35.19
54936;BME280;40838;50.676;7.838;2023-04-03T12:26:36;99494.09;;;3.73;38.96
54936;BME280;40838;50.676;7.838;2023-04-03T12:29:14;99487.28;;;4.51;37.99
54936;BME280;40838;50.676;7.838;2023-04-03T12:31:48;99499.50;;;1.32;43.49
54936;BME280;40838;50.676;7.838;2023-04-03T12:34:41;99505.13;;;0.71;43.39
54936;BME280;40838;50.676;7.838;2023-04-03T12:37:21;99506.22;;;0.98;43.32
54936;BME280;40838;50.676;7.838;2023-04-03T12:40:03;99540.19;;;1.42;43.73
54936;BME280;40838;50.676;7.838;2023-04-03T12:45:27;99501.53;;;0.27;42.38
54936;BME280;40838;50.676;7.838;2023-04-03T12:47:55;99485.13;;;1.49;50.99
54936;BME280;40838;50.676;7.838;2023-04-03T12:50:23;99500.69;;;0.71;42.17
54936;BME280;40838;50.676;7.838;2023-04-03T12:52:56;99457.75;;;0.94;44.06
54936;BME280;40838;50.676;7.838;2023-04-03T12:55:25;99481.91;;;1.11;44.75
54936;BME280;40838;50.676;7.838;2023-04-03T12:57:53;99462.81;;;1.17;46.96
54936;BME280;40838;50.676;7.838;2023-04-03T13:00:29;99461.84;;;1.24;48.01
54936;BME280;40838;50.676;7.838;2023-04-03T13:02:58;99469.56;;;0.68;47.69
54936;BME280;40838;50.676;7.838;2023-04-03T13:05:25;99474.59;;;0.85;49.50
54936;BME280;40838;50.676;7.838;2023-04-03T13:07:56;99477.59;;;0.81;46.84
54936;BME280;40838;50.676;7.838;2023-04-03T13:10:25;99470.09;;;1.21;50.28
54936;BME280;40838;50.676;7.838;2023-04-03T13:12:54;99466.69;;;1.21;45.76
54936;BME280;40838;50.676;7.838;2023-04-03T13:15:26;99464.66;;;2.01;45.10
54936;BME280;40838;50.676;7.838;2023-04-03T13:17:54;99461.78;;;1.39;43.88
54936;BME280;40838;50.676;7.838;2023-04-03T13:20:25;99460.25;;;1.02;44.21
54936;BME280;40838;50.676;7.838;2023-04-03T13:22:57;99469.19;;;1.57;46.30
54936;BME280;40838;50.676;7.838;2023-04-03T13:25:28;99462.66;;;0.82;45.19
54936;BME280;40838;50.676;7.838;2023-04-03T13:27:58;99464.34;;;0.90;44.24
54936;BME280;40838;50.676;7.838;2023-04-03T13:30:29;99456.91;;;1.36;44.87
54936;BME280;40838;50.676;7.838;2023-04-03T13:32:57;99452.66;;;0.92;43.58
54936;BME280;40838;50.676;7.838;2023-04-03T13:35:28;99451.19;;;1.26;44.02